Time;durP1;ratioP1;P1;durP2;ratioP2;P2;SDS_P1;SDS_P2;PMS_P1;PMS_P2;Temp;Humidity;BMP_temperature;BMP_pressure;BME280_temperature;BME280_humidity;BME280_pressure;Samples;Min_cycle;Max_cycle;Signal;HPM_P1;HPM_P2
2023/10/22 00:02:08;;;;;;;;;;;;;;;12.86;90.58;99626.88;5058286;28;19924;-92
2023/10/22 00:13:47;;;;;;;;;;;;;;;12.60;92.11;99639.31;5056310;28;19923;-92
2023/10/22 00:16:35;;;;;;;;;;;;;;;12.81;91.62;99653.38;5048103;28;19921;-92
2023/10/22 00:19:04;;;;;;;;;;;;;;;12.65;92.13;99643.44;5071741;28;20249;-92
2023/10/22 00:21:29;;;;;;;;;;;;;;;12.72;92.26;99648.50;5057289;28;19943;-91
2023/10/22 00:23:57;;;;;;;;;;;;;;;12.61;92.56;99652.41;5057514;28;19920;-91
2023/10/22 00:26:22;;;;;;;;;;;;;;;12.61;92.74;99660.28;5057364;28;19927;-91
2023/10/22 00:28:54;;;;;;;;;;;;;;;12.62;92.95;99661.13;5051663;28;19938;-91
2023/10/22 00:31:34;;;;;;;;;;;;;;;12.59;92.92;99666.50;5057671;28;19912;-91
2023/10/22 00:34:21;;;;;;;;;;;;;;;12.70;92.51;99666.06;5054050;28;19913;-91
2023/10/22 00:36:55;;;;;;;;;;;;;;;12.65;92.85;99674.16;5074321;28;19999;-91
2023/10/22 00:39:20;;;;;;;;;;;;;;;12.52;94.03;99675.53;5045748;28;19913;-92
2023/10/22 00:41:56;;;;;;;;;;;;;;;12.65;93.11;99682.88;5057259;28;19913;-91
2023/10/22 00:44:35;;;;;;;;;;;;;;;12.73;93.13;99684.34;5040814;28;19920;-91
2023/10/22 00:47:06;;;;;;;;;;;;;;;12.67;93.13;99693.34;5057399;28;20103;-91
2023/10/22 00:49:34;;;;;;;;;;;;;;;12.80;92.79;99693.72;5057260;28;19928;-91
2023/10/22 00:52:11;;;;;;;;;;;;;;;12.74;92.57;99692.22;5049423;28;19917;-92
2023/10/22 01:00:51;;;;;;;;;;;;;;;12.73;93.29;99698.38;5063097;28;20268;-91
2023/10/22 01:03:45;;;;;;;;;;;;;;;12.71;93.60;99699.34;5053477;28;19912;-92
2023/10/22 01:06:22;;;;;;;;;;;;;;;12.69;93.38;99706.44;5066085;28;19922;-91
2023/10/22 01:08:57;;;;;;;;;;;;;;;12.65;93.81;99695.16;5065606;28;19940;-92
2023/10/22 01:11:23;;;;;;;;;;;;;;;12.81;93.12;99703.31;5032652;28;20285;-91
2023/10/22 01:13:51;;;;;;;;;;;;;;;12.83;93.17;99715.50;5056039;28;19913;-91
2023/10/22 01:16:22;;;;;;;;;;;;;;;12.64;94.06;99696.09;5056923;28;20043;-91
2023/10/22 01:18:47;;;;;;;;;;;;;;;12.65;94.01;99703.06;5056747;28;19912;-91
2023/10/22 01:21:14;;;;;;;;;;;;;;;12.69;94.55;99699.41;5037902;28;19931;-92
2023/10/22 01:24:08;;;;;;;;;;;;;;;12.63;94.33;99703.13;5055331;28;19921;-92
2023/10/22 01:26:42;;;;;;;;;;;;;;;12.63;94.68;99710.16;5025898;28;19912;-92
2023/10/22 01:29:13;;;;;;;;;;;;;;;12.52;95.58;99714.97;5036787;28;19920;-91
2023/10/22 01:31:42;;;;;;;;;;;;;;;12.81;94.19;99709.44;5033566;28;19963;-92
2023/10/22 01:37:31;;;;;;;;;;;;;;;12.65;94.23;99726.72;5053837;28;19919;-92
2023/10/22 01:39:59;;;;;;;;;;;;;;;12.60;94.63;99736.56;5039303;28;19913;-92
2023/10/22 01:42:37;;;;;;;;;;;;;;;12.62;94.83;99737.34;5042755;28;19917;-92
2023/10/22 01:45:21;;;;;;;;;;;;;;;12.59;95.08;99740.94;5025498;28;19921;-91
2023/10/22 01:47:54;;;;;;;;;;;;;;;12.63;94.63;99741.69;5050176;28;19913;-92
2023/10/22 01:50:22;;;;;;;;;;;;;;;12.56;95.43;99748.94;5035942;28;20424;-91
2023/10/22 01:52:58;;;;;;;;;;;;;;;12.68;94.45;99750.25;5056499;28;19942;-91
2023/10/22 01:55:42;;;;;;;;;;;;;;;12.48;95.63;99749.25;5056096;28;19916;-91
2023/10/22 01:58:26;;;;;;;;;;;;;;;12.55;96.09;99764.78;5052942;28;19913;-91
2023/10/22 02:01:08;;;;;;;;;;;;;;;12.53;96.76;99770.09;5051921;28;19973;-91
2023/10/22 02:06:44;;;;;;;;;;;;;;;12.19;99.56;99775.69;4972870;28;19925;-91
2023/10/22 02:09:27;;;;;;;;;;;;;;;12.16;100.00;99783.69;5045885;28;19949;-92
2023/10/22 02:15:30;;;;;;;;;;;;;;;11.94;100.00;99795.78;5042829;28;19913;-92
2023/10/22 02:18:04;;;;;;;;;;;;;;;11.86;100.00;99799.56;5021942;28;19956;-93
2023/10/22 02:20:59;;;;;;;;;;;;;;;11.86;100.00;99804.81;5038551;28;20446;-93
2023/10/22 02:23:36;;;;;;;;;;;;;;;11.73;100.00;99813.06;5052365;28;20387;-93
2023/10/22 02:26:25;;;;;;;;;;;;;;;11.89;100.00;99813.41;5035715;28;19931;-94
2023/10/22 02:29:10;;;;;;;;;;;;;;;11.71;100.00;99820.16;5049119;28;19913;-93
2023/10/22 02:31:45;;;;;;;;;;;;;;;11.65;100.00;99825.63;5015778;28;20334;-93
2023/10/22 02:37:21;;;;;;;;;;;;;;;11.60;100.00;99830.13;5033565;28;20020;-93
2023/10/22 02:40:00;;;;;;;;;;;;;;;11.56;100.00;99829.38;5015558;28;19924;-93
2023/10/22 02:42:29;;;;;;;;;;;;;;;11.54;100.00;99839.06;5016389;28;19917;-93
2023/10/22 02:51:25;;;;;;;;;;;;;;;11.54;100.00;99859.22;5034069;28;19931;-93
2023/10/22 02:54:03;;;;;;;;;;;;;;;11.53;100.00;99862.72;5034457;28;19913;-94
2023/10/22 02:56:28;;;;;;;;;;;;;;;11.49;100.00;99868.97;5016862;28;20332;-93
2023/10/22 02:59:07;;;;;;;;;;;;;;;11.51;100.00;99875.91;5016875;28;19919;-92
2023/10/22 03:02:12;;;;;;;;;;;;;;;11.58;100.00;99876.56;5025475;28;20270;-93
2023/10/22 03:04:48;;;;;;;;;;;;;;;;;;;;;
2023/10/22 03:10:12;;;;;;;;;;;;;;;11.53;100.00;99888.97;5035231;28;19940;-93
2023/10/22 03:12:41;;;;;;;;;;;;;;;11.43;100.00;99897.13;5017688;28;19913;-93
2023/10/22 03:18:25;;;;;;;;;;;;;;;11.54;100.00;99901.19;5033545;28;19920;-93
2023/10/22 03:21:09;;;;;;;;;;;;;;;11.49;100.00;99905.69;5016733;28;20354;-93
2023/10/22 03:23:45;;;;;;;;;;;;;;;11.47;100.00;99910.16;5053607;28;19951;-93
2023/10/22 03:26:26;;;;;;;;;;;;;;;11.64;100.00;99922.72;5055636;28;19921;-93
2023/10/22 03:29:12;;;;;;;;;;;;;;;11.51;100.00;99924.91;5039595;28;19924;-94
2023/10/22 03:32:14;;;;;;;;;;;;;;;;;;;;;
2023/10/22 03:37:40;;;;;;;;;;;;;;;11.62;100.00;99956.88;5057703;28;19928;-93
2023/10/22 03:40:06;;;;;;;;;;;;;;;11.54;100.00;99964.16;5039306;28;19919;-93
2023/10/22 03:49:04;;;;;;;;;;;;;;;11.42;100.00;99992.47;4976323;28;20297;-94
2023/10/22 03:55:12;;;;;;;;;;;;;;;11.37;100.00;99988.25;5057356;28;19927;-93
2023/10/22 03:57:38;;;;;;;;;;;;;;;11.32;100.00;100000.63;5039899;28;19913;-93
2023/10/22 04:00:31;;;;;;;;;;;;;;;11.30;100.00;100012.94;5039633;28;20058;-93
2023/10/22 04:03:23;;;;;;;;;;;;;;;11.32;100.00;100021.59;5036971;28;19921;-93
2023/10/22 04:06:03;;;;;;;;;;;;;;;11.23;100.00;100025.34;4997867;28;19913;-93
2023/10/22 04:08:39;;;;;;;;;;;;;;;11.22;100.00;100028.88;5055335;28;19913;-93
2023/10/22 04:11:30;;;;;;;;;;;;;;;11.20;100.00;100033.31;5038063;28;19923;-93
2023/10/22 04:17:01;;;;;;;;;;;;;;;11.18;100.00;100051.72;5058728;28;19920;-93
2023/10/22 04:22:30;;;;;;;;;;;;;;;11.14;100.00;100057.09;5066990;28;19963;-93
2023/10/22 04:27:59;;;;;;;;;;;;;;;11.09;100.00;100063.31;5077314;28;19919;-93
2023/10/22 04:30:34;;;;;;;;;;;;;;;11.08;100.00;100072.06;5040792;28;20343;-93
2023/10/22 04:33:03;;;;;;;;;;;;;;;11.05;100.00;100072.16;5040141;28;20257;-93
2023/10/22 04:38:42;;;;;;;;;;;;;;;11.00;100.00;100079.25;5056301;28;19919;-92
2023/10/22 04:50:31;;;;;;;;;;;;;;;10.89;100.00;100102.28;5041429;28;20407;-92
2023/10/22 04:53:09;;;;;;;;;;;;;;;10.84;100.00;100104.16;5039445;28;19913;-92
2023/10/22 04:56:03;;;;;;;;;;;;;;;10.81;100.00;100107.69;5055975;28;19913;-92
2023/10/22 04:58:46;;;;;;;;;;;;;;;10.77;100.00;100107.81;5089150;28;19968;-93
2023/10/22 05:01:20;;;;;;;;;;;;;;;10.70;100.00;100118.47;5091614;28;19912;-92
2023/10/22 05:04:15;;;;;;;;;;;;;;;10.64;100.00;100115.97;5061893;28;19917;-93
2023/10/22 05:06:50;;;;;;;;;;;;;;;10.60;100.00;100127.41;5089885;28;19917;-92
2023/10/22 05:09:44;;;;;;;;;;;;;;;10.56;100.00;100131.88;5054553;28;20348;-92
2023/10/22 05:12:13;;;;;;;;;;;;;;;10.50;100.00;100133.75;5054380;28;19921;-92
2023/10/22 05:17:46;;;;;;;;;;;;;;;10.35;100.00;100143.69;5060986;28;19919;-92
2023/10/22 05:23:17;;;;;;;;;;;;;;;10.29;100.00;100154.28;5055161;28;20355;-92
2023/10/22 05:34:45;;;;;;;;;;;;;;;10.13;100.00;100173.81;5055280;28;19943;-93
2023/10/22 05:37:18;;;;;;;;;;;;;;;10.15;100.00;100182.50;5022195;28;19909;-92
2023/10/22 05:39:46;;;;;;;;;;;;;;;10.11;100.00;100191.31;5034532;28;19979;-93
2023/10/22 05:42:20;;;;;;;;;;;;;;;10.05;100.00;100197.53;5018366;28;19930;-91
2023/10/22 05:45:03;;;;;;;;;;;;;;;9.97;100.00;100202.03;5033629;28;19921;-92
2023/10/22 05:47:45;;;;;;;;;;;;;;;9.91;100.00;100195.16;5052539;28;20448;-92
2023/10/22 05:50:29;;;;;;;;;;;;;;;9.87;100.00;100199.63;5013395;28;20385;-91
2023/10/22 05:59:30;;;;;;;;;;;;;;;9.76;100.00;100219.03;5019224;28;19983;-92
2023/10/22 06:02:08;;;;;;;;;;;;;;;9.71;100.00;100227.84;5036100;28;19913;-92
2023/10/22 06:07:38;;;;;;;;;;;;;;;9.74;100.00;100228.66;5095075;28;19931;-92
2023/10/22 06:10:15;;;;;;;;;;;;;;;9.70;100.00;100233.94;5077495;28;19905;-93
2023/10/22 06:12:52;;;;;;;;;;;;;;;9.70;100.00;100244.41;5075275;28;19971;-93
2023/10/22 06:18:48;;;;;;;;;;;;;;;9.70;100.00;100256.63;5095684;28;19919;-91
2023/10/22 06:34:09;;;;;;;;;;;;;;;9.89;100.00;100280.72;5095213;28;20075;-91
2023/10/22 06:37:01;;;;;;;;;;;;;;;9.92;100.00;100291.13;5077489;28;19916;-91
2023/10/22 06:39:38;;;;;;;;;;;;;;;9.95;100.00;100292.84;5098782;28;19916;-92
2023/10/22 06:42:20;;;;;;;;;;;;;;;10.09;100.00;100295.22;5058946;28;19924;-93
2023/10/22 06:44:53;;;;;;;;;;;;;;;10.14;100.00;100294.22;5093338;28;19917;-92
2023/10/22 06:47:31;;;;;;;;;;;;;;;10.20;100.00;100307.19;5056473;28;19938;-92
2023/10/22 06:53:26;;;;;;;;;;;;;;;10.31;100.00;100317.47;4996177;28;19914;-92
2023/10/22 06:56:14;;;;;;;;;;;;;;;;;;;;;
2023/10/22 06:58:51;;;;;;;;;;;;;;;10.49;100.00;100324.13;5057670;28;20319;-93
2023/10/22 07:01:33;;;;;;;;;;;;;;;10.50;100.00;100327.59;5050916;28;19917;-92
2023/10/22 07:07:02;;;;;;;;;;;;;;;10.56;100.00;100335.38;5077236;28;19962;-92
2023/10/22 07:09:57;;;;;;;;;;;;;;;;;;;;;
2023/10/22 07:12:24;;;;;;;;;;;;;;;10.66;100.00;100350.00;5074231;28;19916;-91
2023/10/22 07:23:57;;;;;;;;;;;;;;;10.97;100.00;100378.19;5025624;28;19923;-92
2023/10/22 07:26:32;;;;;;;;;;;;;;;10.98;100.00;100377.31;5054484;28;19921;-92
2023/10/22 07:29:23;;;;;;;;;;;;;;;10.99;100.00;100380.78;5054453;28;20015;-91
2023/10/22 07:31:51;;;;;;;;;;;;;;;10.96;100.00;100386.97;5027986;28;20003;-92
2023/10/22 07:34:20;;;;;;;;;;;;;;;10.90;100.00;100392.31;5040530;28;19938;-91
2023/10/22 07:36:51;;;;;;;;;;;;;;;10.92;100.00;100393.19;5058454;28;20280;-92
2023/10/22 07:39:22;;;;;;;;;;;;;;;10.88;100.00;100404.63;5064094;28;19927;-91
2023/10/22 07:41:52;;;;;;;;;;;;;;;10.87;100.00;100408.97;5048910;28;19912;-92
2023/10/22 07:44:28;;;;;;;;;;;;;;;10.95;100.00;100411.47;5044606;28;20003;-92
2023/10/22 07:47:00;;;;;;;;;;;;;;;10.96;100.00;100407.97;5069301;28;20249;-92
2023/10/22 07:49:30;;;;;;;;;;;;;;;11.03;100.00;100414.81;5049432;28;19912;-91
2023/10/22 07:52:21;;;;;;;;;;;;;;;11.09;100.00;100409.41;5047627;28;20261;-92
2023/10/22 07:58:11;;;;;;;;;;;;;;;11.91;100.00;100414.59;5069055;28;20321;-91
2023/10/22 08:00:45;;;;;;;;;;;;;;;13.24;99.11;100419.84;5049783;28;19954;-92
2023/10/22 08:03:32;;;;;;;;;;;;;;;14.29;95.93;100420.97;5053821;28;19924;-92
2023/10/22 08:06:08;;;;;;;;;;;;;;;15.39;88.87;100423.22;5065434;28;19912;-92
2023/10/22 08:08:56;;;;;;;;;;;;;;;16.95;87.82;100425.59;5060029;28;19913;-92
2023/10/22 08:11:24;;;;;;;;;;;;;;;18.50;77.93;100429.72;5061030;28;19912;-92
2023/10/22 08:13:52;;;;;;;;;;;;;;;19.25;75.52;100439.97;5074386;28;19919;-92
2023/10/22 08:22:31;;;;;;;;;;;;;;;16.60;82.94;100450.94;5061360;28;20296;-94
2023/10/22 08:24:59;;;;;;;;;;;;;;;15.82;86.87;100447.13;5055135;28;19913;-93
2023/10/22 08:27:24;;;;;;;;;;;;;;;15.26;87.43;100459.78;5054635;28;19912;-94
2023/10/22 08:30:03;;;;;;;;;;;;;;;14.93;90.62;100451.28;5050064;28;19921;-92
2023/10/22 08:33:12;;;;;;;;;;;;;;;14.64;90.99;100451.44;5057594;28;19913;-93
2023/10/22 08:35:46;;;;;;;;;;;;;;;14.27;90.76;100450.03;5039843;28;19920;-94
2023/10/22 08:38:23;;;;;;;;;;;;;;;14.15;92.10;100453.03;5055247;28;20333;-94
2023/10/22 08:41:01;;;;;;;;;;;;;;;14.37;92.44;100458.50;5056656;28;19913;-93
2023/10/22 08:43:43;;;;;;;;;;;;;;;15.33;90.13;100470.94;5057131;28;19917;-93
2023/10/22 08:49:17;;;;;;;;;;;;;;;16.63;81.56;100472.81;5054830;28;20134;-93
2023/10/22 08:58:12;;;;;;;;;;;;;;;16.38;84.17;100493.31;5056994;28;19939;-94
2023/10/22 09:01:00;;;;;;;;;;;;;;;16.22;84.97;100493.06;5074159;28;19920;-93
2023/10/22 09:03:51;;;;;;;;;;;;;;;16.26;86.33;100506.13;5032661;28;20012;-93
2023/10/22 09:06:24;;;;;;;;;;;;;;;16.37;85.62;100497.72;5057759;28;20004;-93
2023/10/22 09:08:57;;;;;;;;;;;;;;;16.36;84.30;100505.72;5042319;28;20006;-93
2023/10/22 09:11:25;;;;;;;;;;;;;;;16.06;85.63;100508.69;5058608;28;19920;-93
2023/10/22 09:14:02;;;;;;;;;;;;;;;15.90;87.54;100513.72;5057451;28;19955;-93
2023/10/22 09:16:44;;;;;;;;;;;;;;;15.69;88.18;100513.59;5058063;28;19916;-94
2023/10/22 09:19:31;;;;;;;;;;;;;;;15.45;88.52;100504.81;5056061;28;19919;-93
2023/10/22 09:22:07;;;;;;;;;;;;;;;15.28;88.76;100515.16;5038853;28;19913;-93
2023/10/22 09:24:38;;;;;;;;;;;;;;;15.29;88.88;100522.16;5071962;28;19916;-93
2023/10/22 09:27:11;;;;;;;;;;;;;;;15.38;89.43;100522.66;5073938;28;20039;-94
2023/10/22 09:29:58;;;;;;;;;;;;;;;15.49;89.84;100524.91;5055602;28;19920;-94
2023/10/22 09:32:24;;;;;;;;;;;;;;;15.34;88.22;100530.75;5053852;28;19921;-93
2023/10/22 09:38:13;;;;;;;;;;;;;;;15.05;90.05;100540.59;5055161;28;19923;-89
2023/10/22 09:43:58;;;;;;;;;;;;;;;14.48;90.63;100540.72;5059591;28;19970;-93
2023/10/22 09:46:34;;;;;;;;;;;;;;;14.28;91.11;100559.81;5056711;28;20011;-93
2023/10/22 09:49:03;;;;;;;;;;;;;;;14.13;91.45;100569.03;5054864;28;19917;-92
2023/10/22 09:54:52;;;;;;;;;;;;;;;13.78;93.29;100564.84;5054253;28;19924;-92
2023/10/22 09:57:35;;;;;;;;;;;;;;;13.72;93.44;100571.16;5036830;28;19913;-92
2023/10/22 10:00:08;;;;;;;;;;;;;;;13.65;93.28;100566.97;5038113;28;19936;-91
2023/10/22 10:02:36;;;;;;;;;;;;;;;13.69;93.99;100576.50;5036156;28;19917;-91
2023/10/22 10:05:05;;;;;;;;;;;;;;;13.68;93.93;100573.00;5054470;28;20003;-91
2023/10/22 10:07:31;;;;;;;;;;;;;;;13.65;94.21;100570.47;5036363;28;20008;-91
2023/10/22 10:10:11;;;;;;;;;;;;;;;13.55;94.39;100573.41;5052797;28;19944;-92
2023/10/22 10:12:39;;;;;;;;;;;;;;;13.50;94.69;100579.69;5036202;28;19912;-92
2023/10/22 10:15:31;;;;;;;;;;;;;;;13.50;94.84;100587.56;5037696;28;20300;-92
2023/10/22 10:17:57;;;;;;;;;;;;;;;13.52;94.81;100577.84;5014000;28;19976;-91
2023/10/22 10:20:43;;;;;;;;;;;;;;;13.56;94.92;100575.13;5033366;28;20372;-91
2023/10/22 10:23:29;;;;;;;;;;;;;;;13.64;94.62;100589.78;5037102;28;19916;-91
2023/10/22 10:32:25;;;;;;;;;;;;;;;13.83;94.41;100589.28;5050797;28;19947;-93
2023/10/22 10:35:12;;;;;;;;;;;;;;;13.86;94.09;100604.97;5052468;28;19917;-92
2023/10/22 10:37:40;;;;;;;;;;;;;;;13.90;93.94;100605.75;5035399;28;19912;-92
2023/10/22 10:46:16;;;;;;;;;;;;;;;13.78;94.59;100607.84;5012283;28;19921;-92
2023/10/22 10:48:53;;;;;;;;;;;;;;;13.74;94.83;100606.19;5012632;28;19913;-92
2023/10/22 11:00:58;;;;;;;;;;;;;;;13.63;95.08;100605.63;5022597;28;19920;-94
2023/10/22 11:03:32;;;;;;;;;;;;;;;13.52;95.38;100600.69;5035829;28;19923;-91
2023/10/22 11:06:24;;;;;;;;;;;;;;;;;;;;;
2023/10/22 11:09:24;;;;;;;;;;;;;;;13.50;95.55;100608.63;5050894;28;19912;-93
2023/10/22 11:21:37;;;;;;;;;;;;;;;13.88;94.31;100623.38;5073349;28;19966;-91
2023/10/22 11:39:36;;;;;;;;;;;;;;;13.96;94.08;100643.31;5021538;28;20287;-93
2023/10/22 11:42:11;;;;;;;;;;;;;;;13.90;94.38;100643.50;4999511;28;20048;-93
2023/10/22 11:47:43;;;;;;;;;;;;;;;13.85;94.58;100648.91;5017413;28;19971;-93
2023/10/22 11:53:29;;;;;;;;;;;;;;;13.75;95.03;100652.72;5041759;28;20384;-93
2023/10/22 11:59:01;;;;;;;;;;;;;;;13.61;95.11;100668.03;5040819;28;20063;-93
2023/10/22 12:04:35;;;;;;;;;;;;;;;13.45;95.81;100673.69;5041038;28;19967;-93
2023/10/22 12:07:04;;;;;;;;;;;;;;;13.40;96.39;100679.97;5026093;28;19960;-94
2023/10/22 12:09:45;;;;;;;;;;;;;;;13.30;96.98;100684.56;5023920;28;19924;-94
2023/10/22 12:12:20;;;;;;;;;;;;;;;13.19;96.99;100676.97;5043707;28;19913;-93
2023/10/22 12:15:01;;;;;;;;;;;;;;;13.10;97.51;100688.59;5058536;28;19918;-93
2023/10/22 12:17:37;;;;;;;;;;;;;;;13.07;97.79;100688.63;5054946;28;19923;-93
2023/10/22 12:20:42;;;;;;;;;;;;;;;;;;;;;
2023/10/22 12:23:12;;;;;;;;;;;;;;;13.19;98.54;100698.03;5035952;28;19921;-93
2023/10/22 12:25:43;;;;;;;;;;;;;;;13.27;97.97;100690.78;5049313;28;19917;-94
2023/10/22 12:28:24;;;;;;;;;;;;;;;13.38;97.69;100698.44;5036514;28;19919;-93
2023/10/22 12:30:59;;;;;;;;;;;;;;;;;;;;;
2023/10/22 12:33:28;;;;;;;;;;;;;;;13.51;97.33;100699.00;5038518;28;19913;-94
2023/10/22 12:35:59;;;;;;;;;;;;;;;13.47;97.03;100700.81;5022646;28;20007;-94
2023/10/22 12:38:27;;;;;;;;;;;;;;;13.49;97.20;100704.28;5076100;28;19924;-94
2023/10/22 12:47:09;;;;;;;;;;;;;;;13.63;97.00;100708.31;5014511;28;19925;-93
2023/10/22 12:55:59;;;;;;;;;;;;;;;14.61;93.45;100709.06;5014007;28;19928;-93
2023/10/22 12:58:28;;;;;;;;;;;;;;;14.59;93.08;100702.97;5010503;28;19913;-93
2023/10/22 13:01:02;;;;;;;;;;;;;;;14.54;92.84;100706.63;5018395;28;19949;-92
2023/10/22 13:03:27;;;;;;;;;;;;;;;14.82;94.30;100704.94;5020061;28;20016;-93
2023/10/22 13:06:13;;;;;;;;;;;;;;;15.16;93.45;100712.63;5035823;28;20059;-93
2023/10/22 13:08:47;;;;;;;;;;;;;;;15.41;93.26;100717.06;5032104;28;19966;-93
2023/10/22 13:11:20;;;;;;;;;;;;;;;15.56;91.86;100724.50;5038458;28;19971;-93
2023/10/22 13:13:49;;;;;;;;;;;;;;;15.51;90.18;100718.47;5034241;28;19917;-93
2023/10/22 13:16:15;;;;;;;;;;;;;;;15.42;90.00;100719.66;5034144;28;19967;-93
2023/10/22 13:18:42;;;;;;;;;;;;;;;15.38;91.66;100725.09;5020384;28;19920;-93
2023/10/22 13:21:08;;;;;;;;;;;;;;;15.36;91.86;100725.16;5027221;28;19916;-93
2023/10/22 13:23:35;;;;;;;;;;;;;;;15.54;92.63;100728.97;5036837;28;19971;-93
2023/10/22 13:26:18;;;;;;;;;;;;;;;15.74;92.29;100732.69;5041435;28;19913;-94
2023/10/22 13:28:51;;;;;;;;;;;;;;;15.94;90.71;100735.50;5040643;28;20003;-94
2023/10/22 13:31:24;;;;;;;;;;;;;;;15.83;90.65;100736.81;5042424;28;19912;-94
2023/10/22 13:34:04;;;;;;;;;;;;;;;15.75;91.72;100737.06;5043349;28;19934;-93
2023/10/22 13:36:35;;;;;;;;;;;;;;;15.68;90.88;100738.19;5041556;28;19932;-93
2023/10/22 13:39:04;;;;;;;;;;;;;;;15.64;91.24;100733.91;5041322;28;20007;-94
2023/10/22 13:41:32;;;;;;;;;;;;;;;15.59;90.95;100734.09;5041191;28;19913;-93
2023/10/22 13:44:03;;;;;;;;;;;;;;;15.52;91.77;100730.78;5041999;28;19986;-94
2023/10/22 13:46:37;;;;;;;;;;;;;;;15.45;90.30;100738.97;5041027;28;20268;-94
2023/10/22 13:49:09;;;;;;;;;;;;;;;15.32;90.39;100743.81;5038479;28;19947;-94
2023/10/22 13:52:12;;;;;;;;;;;;;;;15.14;90.49;100746.13;5044794;28;20249;-93
2023/10/22 13:57:48;;;;;;;;;;;;;;;14.93;91.75;100757.34;5053446;28;19919;-92
2023/10/22 14:00:14;;;;;;;;;;;;;;;14.96;91.47;100757.28;5019282;28;19926;-92
2023/10/22 14:02:44;;;;;;;;;;;;;;;15.06;91.89;100758.72;5053528;28;20008;-94
2023/10/22 14:14:20;;;;;;;;;;;;;;;15.17;92.13;100768.91;5033721;28;19963;-93
2023/10/22 14:16:48;;;;;;;;;;;;;;;15.15;92.16;100762.81;5031552;28;20011;-94
2023/10/22 14:19:14;;;;;;;;;;;;;;;15.10;92.27;100768.25;5035590;28;19940;-89
2023/10/22 14:27:50;;;;;;;;;;;;;;;14.84;93.05;100771.69;5051471;28;19935;-90
2023/10/22 14:33:24;;;;;;;;;;;;;;;14.63;91.90;100773.22;5039087;28;20400;-89
2023/10/22 14:38:58;;;;;;;;;;;;;;;14.69;92.42;100770.38;5041404;28;20031;-89
2023/10/22 14:41:26;;;;;;;;;;;;;;;14.77;92.85;100775.41;5031155;28;20372;-91
2023/10/22 14:43:55;;;;;;;;;;;;;;;14.76;92.49;100768.44;5031579;28;19976;-89
2023/10/22 14:46:24;;;;;;;;;;;;;;;14.76;92.68;100771.06;5014193;28;19917;-90
2023/10/22 14:48:57;;;;;;;;;;;;;;;14.76;92.76;100771.94;5034290;28;19916;-89
2023/10/22 14:54:30;;;;;;;;;;;;;;;14.85;93.47;100776.91;5053235;28;20426;-90
2023/10/22 14:56:55;;;;;;;;;;;;;;;14.84;93.33;100777.84;5034651;28;19912;-89
2023/10/22 14:59:20;;;;;;;;;;;;;;;14.82;93.11;100781.44;5031783;28;19967;-90
2023/10/22 15:01:52;;;;;;;;;;;;;;;14.78;93.28;100791.19;5043489;28;19912;-90
2023/10/22 15:04:29;;;;;;;;;;;;;;;14.73;93.07;100782.56;5035219;28;19925;-89
2023/10/22 15:06:54;;;;;;;;;;;;;;;14.69;93.31;100792.34;5046734;28;19925;-90
2023/10/22 15:09:29;;;;;;;;;;;;;;;14.63;93.92;100786.41;5035132;28;19921;-89
2023/10/22 15:12:06;;;;;;;;;;;;;;;14.54;94.10;100785.72;5035489;28;20242;-90
2023/10/22 15:23:52;;;;;;;;;;;;;;;;;;;;;
2023/10/22 15:26:37;;;;;;;;;;;;;;;14.19;93.67;100813.97;5056282;28;19921;-92
2023/10/22 15:29:35;;;;;;;;;;;;;;;14.13;94.27;100813.25;5039757;28;19925;-92
2023/10/22 15:32:13;;;;;;;;;;;;;;;14.03;94.55;100808.22;5054981;28;19912;-92
2023/10/22 15:34:51;;;;;;;;;;;;;;;13.95;94.81;100811.94;5039721;28;19923;-93
2023/10/22 15:37:34;;;;;;;;;;;;;;;13.89;94.67;100815.59;5038585;28;19914;-93
2023/10/22 15:46:27;;;;;;;;;;;;;;;13.59;96.36;100814.63;4999124;28;19961;-93
2023/10/22 15:49:14;;;;;;;;;;;;;;;13.49;95.20;100819.28;5025783;28;19917;-94
2023/10/22 15:51:58;;;;;;;;;;;;;;;13.37;94.93;100828.31;5046241;28;20352;-92
2023/10/22 15:54:51;;;;;;;;;;;;;;;13.26;95.22;100825.91;5061858;28;19913;-92
2023/10/22 15:57:20;;;;;;;;;;;;;;;13.17;95.72;100826.97;5077004;28;19912;-92
2023/10/22 16:00:04;;;;;;;;;;;;;;;13.11;95.60;100828.88;5095532;28;20015;-92
2023/10/22 16:02:39;;;;;;;;;;;;;;;13.03;95.90;100830.81;5096402;28;19983;-93
2023/10/22 16:14:33;;;;;;;;;;;;;;;12.73;96.35;100841.97;5065257;28;19935;-93
2023/10/22 16:17:08;;;;;;;;;;;;;;;12.68;96.57;100849.06;5070884;28;19923;-94
2023/10/22 16:41:40;;;;;;;;;;;;;;;12.31;99.26;100881.31;5003672;28;19925;-93
2023/10/22 16:44:26;;;;;;;;;;;;;;;12.28;99.12;100881.38;5053168;28;20449;-93
2023/10/22 16:59:43;;;;;;;;;;;;;;;12.19;99.62;100906.06;4972651;28;19940;-91
2023/10/22 17:02:19;;;;;;;;;;;;;;;12.18;99.59;100911.34;4973876;28;19930;-93
2023/10/22 17:05:01;;;;;;;;;;;;;;;;;;;;;
2023/10/22 17:07:48;;;;;;;;;;;;;;;12.16;99.75;100913.13;4968441;28;20302;-94
2023/10/22 17:10:26;;;;;;;;;;;;;;;12.15;99.68;100917.50;4964771;28;19922;-94
2023/10/22 17:13:20;;;;;;;;;;;;;;;12.15;100.00;100919.28;4960330;28;19961;-93
2023/10/22 17:15:49;;;;;;;;;;;;;;;12.13;100.00;100924.56;4918361;29;20563;-94
2023/10/22 17:18:45;;;;;;;;;;;;;;;12.11;100.00;100927.22;4969671;28;19984;-93
2023/10/22 17:21:15;;;;;;;;;;;;;;;12.11;100.00;100926.31;4968739;28;19926;-94
2023/10/22 17:24:01;;;;;;;;;;;;;;;12.09;100.00;100928.13;4962949;28;20302;-94
2023/10/22 17:26:48;;;;;;;;;;;;;;;12.10;100.00;100933.34;5030495;28;20376;-92
2023/10/22 17:48:43;;;;;;;;;;;;;;;12.13;100.00;100961.34;4958873;28;19933;-94
2023/10/22 18:00:58;;;;;;;;;;;;;;;12.10;100.00;100972.75;4933222;29;19922;-93
2023/10/22 18:03:48;;;;;;;;;;;;;;;12.09;100.00;100978.88;4937963;29;19958;-93
2023/10/22 18:06:33;;;;;;;;;;;;;;;12.10;100.00;100980.63;4907123;29;19919;-93
2023/10/22 18:11:55;;;;;;;;;;;;;;;12.11;100.00;100982.38;4940121;28;20004;-94
2023/10/22 18:18:05;;;;;;;;;;;;;;;12.13;100.00;100991.09;4938420;29;19918;-95
2023/10/22 18:20:49;;;;;;;;;;;;;;;12.10;100.00;101001.66;4937496;29;19919;-94
2023/10/22 18:29:40;;;;;;;;;;;;;;;12.03;100.00;101012.28;4972637;28;20338;-94
2023/10/22 18:32:26;;;;;;;;;;;;;;;12.04;100.00;101007.00;4951271;29;20422;-93
2023/10/22 19:20:14;;;;;;;;;;;;;;;11.65;100.00;101056.53;5009535;28;20401;-92
2023/10/22 19:23:19;;;;;;;;;;;;;;;;;;;;;
2023/10/22 19:38:36;;;;;;;;;;;;;;;11.35;100.00;101077.00;5010227;28;19996;-92
2023/10/22 20:12:24;;;;;;;;;;;;;;;10.71;100.00;101113.44;5000607;28;19924;-93
2023/10/22 20:30:30;;;;;;;;;;;;;;;10.33;100.00;101118.91;5032764;28;20277;-94
2023/10/22 20:33:15;;;;;;;;;;;;;;;10.26;100.00;101123.34;5016700;28;19917;-93
2023/10/22 20:36:16;;;;;;;;;;;;;;;10.20;100.00;101133.81;5031477;28;19917;-94
2023/10/22 20:51:51;;;;;;;;;;;;;;;;;;;;;
2023/10/22 20:54:55;;;;;;;;;;;;;;;;;;;;;
2023/10/22 20:57:53;;;;;;;;;;;;;;;;;;;;;
2023/10/22 21:04:03;;;;;;;;;;;;;;;;;;;;;
2023/10/22 21:07:13;;;;;;;;;;;;;;;9.64;100.00;101138.44;4972124;28;19925;-94
2023/10/22 21:10:05;;;;;;;;;;;;;;;9.61;100.00;101139.34;4921961;28;19919;-94
2023/10/22 21:20:12;;;;;;;;;;;;;;;9.59;100.00;101140.22;4824053;29;20386;-93
2023/10/22 21:29:15;;;;;;;;;;;;;;;;;;;;;
2023/10/22 21:35:16;;;;;;;;;;;;;;;9.45;100.00;101142.84;4819831;29;19952;-93
2023/10/22 21:38:04;;;;;;;;;;;;;;;9.42;100.00;101142.84;4812737;29;19950;-94
2023/10/22 21:59:10;;;;;;;;;;;;;;;;;;;;;
2023/10/22 22:02:17;;;;;;;;;;;;;;;;;;;;;
2023/10/22 22:05:12;;;;;;;;;;;;;;;9.09;100.00;101162.94;4923334;28;19925;-94
2023/10/22 22:11:31;;;;;;;;;;;;;;;8.98;100.00;101153.38;4850574;29;19917;-94
2023/10/22 22:14:18;;;;;;;;;;;;;;;8.94;100.00;101156.84;4852173;29;20010;-94
2023/10/22 22:20:23;;;;;;;;;;;;;;;8.94;100.00;101161.22;4840028;29;19926;-94
2023/10/22 22:23:04;;;;;;;;;;;;;;;8.98;100.00;101165.59;4862180;29;20000;-93
2023/10/22 22:29:21;;;;;;;;;;;;;;;9.04;100.00;101167.28;4920707;29;19930;-94
2023/10/22 22:38:34;;;;;;;;;;;;;;;9.05;100.00;101159.47;4973383;28;19929;-93
2023/10/22 22:44:26;;;;;;;;;;;;;;;9.09;100.00;101155.09;4964726;28;19928;-93